Time;durP1;ratioP1;P1;durP2;ratioP2;P2;SDS_P1;SDS_P2;PMS_P1;PMS_P2;Temp;Humidity;BMP_temperature;BMP_pressure;BME280_temperature;BME280_humidity;BME280_pressure;Samples;Min_cycle;Max_cycle;Signal;HPM_P1;HPM_P2
2023/01/31 00:01:09;;;;;;;19.20;2.92;;;3.10;99.90;;;;;;5034536;28;20039;-75
2023/01/31 00:03:36;;;;;;;15.25;3.78;;;3.00;99.90;;;;;;5052677;28;20041;-75
2023/01/31 00:06:18;;;;;;;22.75;3.50;;;2.90;99.90;;;;;;5031362;28;20386;-76
2023/01/31 00:08:46;;;;;;;24.15;3.38;;;2.90;99.90;;;;;;5030941;28;20052;-75
2023/01/31 00:11:13;;;;;;;19.90;3.28;;;2.80;99.90;;;;;;5032802;28;20095;-75
2023/01/31 00:13:39;;;;;;;19.77;3.75;;;2.80;99.90;;;;;;5031295;28;20073;-75
2023/01/31 00:16:06;;;;;;;24.02;3.50;;;2.70;99.90;;;;;;5030953;28;20507;-75
2023/01/31 00:18:32;;;;;;;20.48;3.17;;;2.70;99.90;;;;;;5031500;28;20582;-75
2023/01/31 00:21:02;;;;;;;20.92;2.72;;;2.70;99.90;;;;;;5030601;28;20077;-75
2023/01/31 00:23:28;;;;;;;25.33;3.15;;;2.70;99.90;;;;;;5032540;28;20432;-75
2023/01/31 00:25:54;;;;;;;23.45;4.30;;;2.70;99.90;;;;;;5032417;28;20124;-75
2023/01/31 00:28:19;;;;;;;19.27;3.95;;;2.60;99.90;;;;;;5031719;28;20160;-75
2023/01/31 00:30:45;;;;;;;13.52;3.13;;;2.60;99.90;;;;;;5032217;28;20041;-75
2023/01/31 00:33:11;;;;;;;22.13;2.97;;;2.50;99.90;;;;;;5032125;28;20362;-75
2023/01/31 00:35:40;;;;;;;17.67;2.63;;;2.50;99.90;;;;;;5030953;28;20596;-75
2023/01/31 00:38:06;;;;;;;13.48;2.72;;;2.50;99.90;;;;;;5032101;28;20041;-75
2023/01/31 00:40:32;;;;;;;17.92;3.97;;;2.50;99.90;;;;;;5032197;28;20043;-75
2023/01/31 00:42:57;;;;;;;23.52;4.00;;;2.40;99.90;;;;;;5030331;28;20046;-75
2023/01/31 00:45:23;;;;;;;13.70;2.78;;;2.40;99.90;;;;;;5014455;28;20688;-75
2023/01/31 00:47:49;;;;;;;15.38;2.92;;;2.40;99.90;;;;;;5030867;28;20041;-75
2023/01/31 00:50:15;;;;;;;18.88;3.10;;;2.40;99.90;;;;;;5030051;28;20081;-75
2023/01/31 00:52:41;;;;;;;14.68;2.70;;;2.40;99.90;;;;;;5014185;28;20037;-74
2023/01/31 00:55:07;;;;;;;16.02;2.60;;;2.50;99.90;;;;;;5030748;28;20620;-75
2023/01/31 00:57:32;;;;;;;12.05;2.38;;;2.50;99.90;;;;;;5031282;28;20037;-75
2023/01/31 00:59:58;;;;;;;14.18;2.75;;;2.50;99.90;;;;;;5013979;28;20043;-75
2023/01/31 01:02:24;;;;;;;21.73;3.67;;;2.40;99.90;;;;;;5031933;28;20120;-75
2023/01/31 01:04:50;;;;;;;18.33;3.25;;;2.50;99.90;;;;;;5030987;28;20077;-74
2023/01/31 01:07:16;;;;;;;15.88;4.15;;;2.50;99.90;;;;;;5030118;28;20057;-75
2023/01/31 01:09:41;;;;;;;17.52;2.92;;;2.60;99.90;;;;;;5030356;28;20079;-75
2023/01/31 01:12:07;;;;;;;22.85;3.08;;;2.60;99.90;;;;;;5030810;28;20402;-75
2023/01/31 01:14:33;;;;;;;16.77;3.45;;;2.70;99.90;;;;;;5031333;28;20734;-75
2023/01/31 01:16:59;;;;;;;18.92;2.78;;;2.80;99.90;;;;;;5029501;28;20571;-75
2023/01/31 01:19:25;;;;;;;14.60;2.47;;;2.80;99.90;;;;;;5029829;28;20080;-75
2023/01/31 01:21:54;;;;;;;17.27;4.15;;;2.90;99.90;;;;;;5031462;28;20086;-75
2023/01/31 01:24:20;;;;;;;15.43;3.53;;;3.00;99.90;;;;;;5030735;28;20037;-75
2023/01/31 01:26:46;;;;;;;16.52;2.80;;;3.00;99.90;;;;;;5031154;28;20532;-75
2023/01/31 01:29:12;;;;;;;13.27;2.90;;;3.00;99.90;;;;;;5029816;28;20135;-75
2023/01/31 01:31:39;;;;;;;18.63;2.55;;;3.00;99.90;;;;;;5030734;28;20164;-75
2023/01/31 01:34:07;;;;;;;12.50;2.50;;;3.00;99.90;;;;;;5030914;28;20052;-75
2023/01/31 01:36:35;;;;;;;15.32;3.15;;;3.10;99.90;;;;;;5029614;28;20052;-75
2023/01/31 01:39:02;;;;;;;9.48;2.33;;;3.10;99.90;;;;;;5012744;28;20332;-75
2023/01/31 01:41:29;;;;;;;12.68;2.10;;;3.10;99.90;;;;;;5029956;28;20084;-76
2023/01/31 01:43:57;;;;;;;19.70;2.75;;;3.00;99.90;;;;;;5029790;28;20048;-75
2023/01/31 01:46:37;;;;;;;10.70;2.85;;;2.90;99.90;;;;;;5028538;28;20129;-75
2023/01/31 01:49:12;;;;;;;10.23;2.08;;;2.80;99.90;;;;;;5029635;28;20050;-76
2023/01/31 01:51:39;;;;;;;13.88;2.30;;;2.70;99.90;;;;;;5030828;28;20470;-75
2023/01/31 01:54:10;;;;;;;15.23;3.90;;;2.70;99.90;;;;;;5028746;28;20055;-75
2023/01/31 01:56:39;;;;;;;19.67;3.97;;;2.70;99.90;;;;;;5030713;28;20042;-75
2023/01/31 01:59:11;;;;;;;20.13;3.08;;;2.80;99.90;;;;;;5028863;28;20044;-75
2023/01/31 02:01:38;;;;;;;14.25;2.85;;;2.80;99.90;;;;;;5030775;28;20120;-75
2023/01/31 02:04:08;;;;;;;15.48;2.17;;;2.90;99.90;;;;;;5029301;28;20051;-75
2023/01/31 02:06:35;;;;;;;19.02;3.17;;;2.90;99.90;;;;;;5012231;28;20441;-74
2023/01/31 02:09:02;;;;;;;25.55;3.47;;;3.00;99.90;;;;;;5029251;28;20050;-75
2023/01/31 02:11:29;;;;;;;16.02;2.80;;;3.10;99.90;;;;;;5029550;28;20421;-74
2023/01/31 02:14:00;;;;;;;21.23;3.13;;;3.20;99.90;;;;;;5028595;28;20112;-75
2023/01/31 02:16:27;;;;;;;19.58;3.28;;;3.30;99.90;;;;;;5030649;28;20595;-75
2023/01/31 02:18:53;;;;;;;18.45;2.92;;;3.40;99.90;;;;;;5029259;28;20045;-75
2023/01/31 02:21:35;;;;;;;12.25;2.58;;;3.50;99.90;;;;;;5029963;28;20037;-75
2023/01/31 02:24:22;;;;;;;21.40;3.05;;;3.60;99.90;;;;;;5029393;28;20041;-74
2023/01/31 02:27:18;;;;;;;19.08;2.58;;;3.70;99.90;;;;;;5030502;28;20044;-74
2023/01/31 02:30:06;;;;;;;14.68;3.42;;;3.70;99.90;;;;;;5028976;28;20077;-74
2023/01/31 02:32:34;;;;;;;17.85;2.63;;;3.80;99.90;;;;;;5012762;28;20041;-74
2023/01/31 02:35:47;;;;;;;10.25;2.92;;;3.90;99.90;;;;;;5029823;28;20597;-74
2023/01/31 02:38:21;;;;;;;19.98;3.00;;;3.90;99.90;;;;;;4998378;28;20064;-75
2023/01/31 02:41:11;;;;;;;12.35;2.10;;;3.90;99.90;;;;;;5029077;28;20128;-75
2023/01/31 02:47:09;;;;;;;16.33;2.42;;;4.00;99.90;;;;;;5030343;28;20090;-74
2023/01/31 02:49:46;;;;;;;15.88;3.65;;;4.00;99.90;;;;;;5028362;28;20080;-73
2023/01/31 02:52:30;;;;;;;14.35;2.35;;;4.00;99.90;;;;;;5028908;28;20080;-75
2023/01/31 02:58:00;;;;;;;13.32;3.03;;;4.10;99.90;;;;;;5030644;28;20188;-74
2023/01/31 03:00:30;;;;;;;22.80;3.97;;;4.10;99.90;;;;;;5016164;28;20037;-74
2023/01/31 03:02:56;;;;;;;28.60;3.42;;;4.10;99.90;;;;;;5031933;28;20042;-74
2023/01/31 03:05:21;;;;;;;17.95;3.33;;;4.20;99.90;;;;;;5032800;28;20064;-74
2023/01/31 03:07:53;;;;;;;10.23;2.78;;;4.20;99.90;;;;;;5032446;28;20401;-75
2023/01/31 03:10:50;;;;;;;23.10;3.97;;;4.30;99.90;;;;;;5033270;28;20128;-73
2023/01/31 03:13:46;;;;;;;18.13;3.55;;;4.30;99.90;;;;;;5032420;28;20052;-73
2023/01/31 03:19:26;;;;;;;15.50;3.40;;;4.40;99.90;;;;;;5033597;28;20115;-73
2023/01/31 03:21:57;;;;;;;17.05;3.15;;;4.40;99.90;;;;;;5033528;28;20049;-74
2023/01/31 03:24:25;;;;;;;18.00;3.50;;;4.50;99.90;;;;;;5031849;28;20048;-74
2023/01/31 03:26:53;;;;;;;17.95;3.05;;;4.50;99.90;;;;;;5015704;28;20474;-74
2023/01/31 03:29:19;;;;;;;18.42;3.08;;;4.50;99.90;;;;;;5032055;28;20041;-74
2023/01/31 03:31:55;;;;;;;16.42;3.80;;;4.60;99.90;;;;;;5031761;28;20147;-74
2023/01/31 03:34:21;;;;;;;16.58;3.35;;;4.60;99.90;;;;;;5033249;28;20053;-74
2023/01/31 03:36:57;;;;;;;18.50;3.60;;;4.60;99.90;;;;;;5032205;28;20077;-73
2023/01/31 03:40:01;;;;;;;19.02;4.22;;;4.70;99.90;;;;;;5033364;28;20041;-73
2023/01/31 03:42:38;;;;;;;25.85;3.40;;;4.70;99.90;;;;;;4991208;28;20136;-74
2023/01/31 03:45:42;;;;;;;24.63;3.92;;;4.70;99.90;;;;;;4958379;28;20054;-74
2023/01/31 03:48:13;;;;;;;21.35;4.03;;;4.80;99.90;;;;;;4974793;28;20395;-74
2023/01/31 03:50:52;;;;;;;19.20;4.00;;;4.80;99.90;;;;;;4975222;28;20082;-74
2023/01/31 03:53:34;;;;;;;21.23;3.80;;;4.80;99.90;;;;;;4990963;28;20054;-74
2023/01/31 03:56:02;;;;;;;21.48;3.92;;;4.90;99.90;;;;;;4991220;28;20049;-74
2023/01/31 03:58:31;;;;;;;19.75;3.80;;;4.90;99.90;;;;;;4990784;28;20166;-73
2023/01/31 04:01:01;;;;;;;18.90;4.25;;;4.90;99.90;;;;;;4974792;28;20153;-74
2023/01/31 04:03:31;;;;;;;19.07;3.70;;;5.00;99.90;;;;;;4990914;28;20057;-74
2023/01/31 04:05:57;;;;;;;26.63;4.18;;;5.00;99.90;;;;;;4990182;28;20309;-74
2023/01/31 04:08:23;;;;;;;19.38;4.43;;;5.00;99.90;;;;;;4990662;28;20042;-73
2023/01/31 04:10:50;;;;;;;23.73;4.22;;;5.00;99.90;;;;;;4974593;28;20042;-74
2023/01/31 04:13:16;;;;;;;19.23;3.58;;;5.00;99.90;;;;;;4990162;28;20061;-74
2023/01/31 04:15:42;;;;;;;18.27;4.30;;;5.10;99.90;;;;;;4990712;28;20039;-73
2023/01/31 04:18:07;;;;;;;19.63;4.60;;;5.10;99.90;;;;;;4974692;28;20204;-74
2023/01/31 04:20:33;;;;;;;21.20;4.75;;;5.20;99.90;;;;;;5027836;28;20447;-74
2023/01/31 04:22:59;;;;;;;28.10;4.70;;;5.20;99.90;;;;;;5031102;28;20045;-74
2023/01/31 04:25:25;;;;;;;27.00;4.72;;;5.20;99.90;;;;;;5032333;28;20124;-73
2023/01/31 04:27:51;;;;;;;30.50;6.35;;;5.30;99.90;;;;;;5030607;28;20037;-74
2023/01/31 04:30:17;;;;;;;28.08;3.97;;;5.30;99.90;;;;;;5030980;28;20577;-73
2023/01/31 04:32:43;;;;;;;18.38;3.67;;;5.30;99.90;;;;;;5032290;28;20040;-74
2023/01/31 04:35:08;;;;;;;19.90;4.88;;;5.30;99.90;;;;;;5030278;28;20041;-74
2023/01/31 04:37:34;;;;;;;23.38;4.32;;;5.30;99.90;;;;;;5032030;28;20073;-74
2023/01/31 04:40:00;;;;;;;21.58;4.95;;;5.30;99.90;;;;;;5030190;28;20041;-73
2023/01/31 04:42:26;;;;;;;24.42;6.00;;;5.30;99.90;;;;;;5030673;28;20043;-73
2023/01/31 04:44:52;;;;;;;21.35;4.28;;;5.30;99.90;;;;;;5030742;28;20040;-74
2023/01/31 04:47:18;;;;;;;20.30;4.35;;;5.30;99.90;;;;;;5030109;28;20053;-72
2023/01/31 04:49:44;;;;;;;20.55;4.70;;;5.30;99.90;;;;;;5030631;28;20045;-73
2023/01/31 04:52:10;;;;;;;22.95;5.35;;;5.30;99.90;;;;;;5031833;28;20056;-73
2023/01/31 04:54:36;;;;;;;23.15;3.95;;;5.30;99.90;;;;;;5030124;28;20382;-73
2023/01/31 04:57:02;;;;;;;21.98;4.68;;;5.30;99.90;;;;;;5031819;28;20054;-73
2023/01/31 04:59:28;;;;;;;23.77;4.90;;;5.30;99.90;;;;;;5031707;28;20044;-73
2023/01/31 05:01:54;;;;;;;19.67;4.65;;;5.30;99.90;;;;;;5030981;28;20112;-74
2023/01/31 05:04:21;;;;;;;19.80;4.97;;;5.20;99.90;;;;;;5030255;28;20045;-73
2023/01/31 05:06:47;;;;;;;24.48;5.07;;;5.20;99.90;;;;;;5030128;28;20061;-73
2023/01/31 05:09:13;;;;;;;24.27;4.57;;;5.10;99.90;;;;;;5031033;28;20104;-74
2023/01/31 05:11:39;;;;;;;21.25;4.60;;;5.10;99.90;;;;;;5031544;28;20042;-73
2023/01/31 05:14:04;;;;;;;30.33;6.07;;;5.10;99.90;;;;;;5029931;28;20095;-74
2023/01/31 05:16:30;;;;;;;25.25;6.00;;;5.10;99.90;;;;;;5029622;28;20046;-74
2023/01/31 05:18:56;;;;;;;23.40;5.00;;;5.00;99.90;;;;;;5031550;28;20076;-74
2023/01/31 05:21:22;;;;;;;23.90;5.40;;;5.00;99.90;;;;;;5030835;28;20065;-74
2023/01/31 05:23:48;;;;;;;24.02;5.50;;;5.10;99.90;;;;;;5030773;28;20049;-73
2023/01/31 05:26:13;;;;;;;27.98;5.93;;;5.00;99.90;;;;;;5013466;28;20103;-73
2023/01/31 05:28:40;;;;;;;25.40;5.07;;;5.00;99.90;;;;;;5029750;28;20038;-73
2023/01/31 05:31:07;;;;;;;23.92;4.97;;;5.10;99.90;;;;;;5012762;28;20049;-74
2023/01/31 05:33:33;;;;;;;25.45;5.07;;;5.10;99.90;;;;;;5029789;28;20088;-74
2023/01/31 05:35:59;;;;;;;20.98;4.85;;;5.20;99.90;;;;;;5029263;28;20050;-74
2023/01/31 05:38:25;;;;;;;33.35;7.53;;;5.20;99.90;;;;;;5029743;28;20099;-74
2023/01/31 05:40:51;;;;;;;32.78;5.40;;;5.20;99.90;;;;;;5031000;28;20037;-74
2023/01/31 05:43:17;;;;;;;24.90;6.13;;;5.30;99.90;;;;;;5029164;28;20052;-74
2023/01/31 05:45:43;;;;;;;36.05;6.43;;;5.30;99.90;;;;;;5029870;28;20515;-73
2023/01/31 05:48:09;;;;;;;29.20;5.45;;;5.40;99.90;;;;;;5029834;28;20067;-73
2023/01/31 05:50:35;;;;;;;23.33;6.03;;;5.40;99.90;;;;;;5012741;28;20068;-73
2023/01/31 05:53:04;;;;;;;32.60;6.07;;;5.50;99.90;;;;;;5030750;28;20038;-74
2023/01/31 05:55:29;;;;;;;20.75;5.50;;;5.50;99.90;;;;;;5013216;28;20095;-73
2023/01/31 05:57:56;;;;;;;28.70;5.55;;;5.50;99.90;;;;;;5029134;28;20725;-73
2023/01/31 06:00:23;;;;;;;27.83;5.32;;;5.60;99.90;;;;;;5030725;28;20156;-74
2023/01/31 06:02:49;;;;;;;25.02;6.78;;;5.60;99.90;;;;;;5030779;28;20401;-73
2023/01/31 06:05:15;;;;;;;19.17;5.28;;;5.70;99.90;;;;;;5028785;28;20470;-73
2023/01/31 06:07:41;;;;;;;28.00;5.45;;;5.70;99.90;;;;;;5048176;28;20533;-73
2023/01/31 06:10:09;;;;;;;15.20;5.13;;;5.70;99.90;;;;;;5050403;28;20045;-73
2023/01/31 06:12:35;;;;;;;18.58;4.40;;;5.70;99.90;;;;;;5032052;28;20041;-74
2023/01/31 06:15:01;;;;;;;17.90;5.22;;;5.70;99.90;;;;;;5050652;28;20043;-73
2023/01/31 06:17:26;;;;;;;29.83;5.28;;;5.70;99.90;;;;;;5032776;28;20481;-73
2023/01/31 06:19:52;;;;;;;22.92;5.15;;;5.70;99.90;;;;;;5015814;28;20481;-73
2023/01/31 06:22:19;;;;;;;18.08;4.90;;;5.80;99.90;;;;;;5032645;28;20531;-73
2023/01/31 06:24:45;;;;;;;21.13;4.80;;;5.80;99.90;;;;;;5016346;28;20072;-73
2023/01/31 06:27:11;;;;;;;23.08;5.15;;;5.80;99.90;;;;;;5031765;28;20476;-73
2023/01/31 06:29:37;;;;;;;26.15;5.63;;;5.80;99.90;;;;;;5050521;28;20110;-74
2023/01/31 06:32:04;;;;;;;22.10;4.80;;;5.80;99.90;;;;;;5033803;28;20040;-73
2023/01/31 06:34:29;;;;;;;19.90;5.57;;;5.80;99.90;;;;;;5036495;28;20044;-73
2023/01/31 06:36:55;;;;;;;28.17;5.93;;;5.90;99.90;;;;;;5036319;28;20037;-74
2023/01/31 06:39:21;;;;;;;22.25;4.57;;;5.90;99.90;;;;;;5035773;28;20052;-74
2023/01/31 06:41:46;;;;;;;24.80;4.53;;;5.90;99.90;;;;;;5053985;28;20048;-74
2023/01/31 06:44:12;;;;;;;24.15;4.18;;;5.90;99.90;;;;;;5036407;28;20056;-74
2023/01/31 06:46:38;;;;;;;21.25;5.05;;;5.90;99.90;;;;;;5035624;28;20040;-74
2023/01/31 06:49:04;;;;;;;19.30;5.10;;;5.90;99.90;;;;;;5019656;28;20175;-73
2023/01/31 06:51:30;;;;;;;22.95;4.97;;;6.00;99.90;;;;;;5036181;28;20075;-74
2023/01/31 06:53:56;;;;;;;21.35;4.22;;;6.00;99.90;;;;;;5035520;28;20120;-73
2023/01/31 06:56:22;;;;;;;20.50;3.92;;;6.00;99.90;;;;;;5019410;28;20124;-73
2023/01/31 06:58:48;;;;;;;19.88;4.47;;;6.00;99.90;;;;;;5036208;28;20033;-73
2023/01/31 07:01:14;;;;;;;22.50;4.57;;;6.00;99.90;;;;;;5035453;28;20385;-72
2023/01/31 07:03:40;;;;;;;18.00;3.20;;;6.00;99.90;;;;;;5035251;28;20433;-72
2023/01/31 07:06:08;;;;;;;26.73;4.60;;;6.10;99.90;;;;;;5051271;28;20317;-73
2023/01/31 07:08:34;;;;;;;15.73;3.72;;;6.10;99.90;;;;;;5050406;28;20044;-73
2023/01/31 07:11:00;;;;;;;20.08;3.53;;;6.10;99.90;;;;;;5033982;28;20092;-72
2023/01/31 07:13:27;;;;;;;21.35;3.72;;;6.10;99.90;;;;;;5034753;28;20049;-73
2023/01/31 07:15:54;;;;;;;16.98;2.95;;;6.10;99.90;;;;;;5017612;28;20119;-73
2023/01/31 07:18:19;;;;;;;20.08;3.80;;;6.10;99.90;;;;;;5052705;28;20035;-74
2023/01/31 07:20:45;;;;;;;21.80;4.07;;;6.00;99.90;;;;;;5050882;28;21129;-74
2023/01/31 07:23:11;;;;;;;21.33;4.20;;;6.00;99.90;;;;;;5033252;28;20060;-73
2023/01/31 07:25:37;;;;;;;22.63;4.22;;;6.00;99.90;;;;;;5052266;28;20080;-73
2023/01/31 07:28:03;;;;;;;21.25;5.03;;;6.00;99.90;;;;;;5050578;28;20041;-73
2023/01/31 07:30:30;;;;;;;20.52;4.72;;;6.00;99.90;;;;;;5034509;28;20053;-73
2023/01/31 07:32:55;;;;;;;31.23;8.68;;;6.00;99.90;;;;;;5051953;28;20045;-71
2023/01/31 07:35:21;;;;;;;21.00;5.70;;;6.00;99.90;;;;;;5051445;28;20033;-73
2023/01/31 07:37:50;;;;;;;21.63;4.75;;;5.90;99.90;;;;;;5034039;28;20041;-74
2023/01/31 07:40:15;;;;;;;16.50;3.58;;;5.90;99.90;;;;;;5034016;28;20037;-73
2023/01/31 07:42:41;;;;;;;22.15;4.75;;;6.00;99.90;;;;;;5033048;28;20043;-73
2023/01/31 07:45:10;;;;;;;13.23;3.50;;;6.00;99.90;;;;;;5033970;28;20075;-74
2023/01/31 07:47:36;;;;;;;20.65;4.07;;;6.00;99.90;;;;;;5017741;28;20436;-72
2023/01/31 07:50:02;;;;;;;11.40;3.90;;;6.00;99.90;;;;;;5017097;28;20033;-73
2023/01/31 07:52:28;;;;;;;25.85;5.32;;;6.00;99.90;;;;;;5033968;28;20183;-74
2023/01/31 07:54:54;;;;;;;13.68;3.13;;;6.00;99.90;;;;;;5051704;28;20448;-74
2023/01/31 07:57:20;;;;;;;18.05;3.42;;;6.00;99.90;;;;;;5016950;28;20072;-73
2023/01/31 07:59:46;;;;;;;19.52;5.70;;;6.10;99.90;;;;;;5033776;28;20059;-73
2023/01/31 08:04:57;;;;;;;13.88;5.60;;;6.10;99.90;;;;;;5033223;28;20382;-72
2023/01/31 08:07:24;;;;;;;13.63;5.18;;;6.10;99.90;;;;;;5033254;28;20060;-73
2023/01/31 08:09:49;;;;;;;16.05;4.30;;;6.10;99.90;;;;;;5033302;28;20040;-72
2023/01/31 08:12:15;;;;;;;11.85;2.90;;;6.10;99.90;;;;;;5033086;28;20541;-72
2023/01/31 08:14:41;;;;;;;12.98;2.80;;;6.10;99.90;;;;;;5051371;28;20037;-72
2023/01/31 08:17:08;;;;;;;14.63;2.63;;;6.10;99.90;;;;;;5032521;28;20048;-72
2023/01/31 08:19:34;;;;;;;18.92;3.50;;;6.10;99.90;;;;;;5033631;28;20040;-72
2023/01/31 08:22:01;;;;;;;14.82;4.88;;;6.10;99.90;;;;;;5033297;28;20080;-73
2023/01/31 08:24:27;;;;;;;12.82;3.03;;;6.20;99.90;;;;;;5050558;28;20044;-71
2023/01/31 08:26:53;;;;;;;16.73;3.47;;;6.20;99.90;;;;;;5033109;28;20040;-72
2023/01/31 08:29:19;;;;;;;14.20;3.92;;;6.20;99.90;;;;;;5016956;28;20456;-73
2023/01/31 08:31:44;;;;;;;19.70;3.85;;;6.20;99.90;;;;;;5032680;28;20044;-73
2023/01/31 08:34:10;;;;;;;20.08;4.18;;;6.30;99.90;;;;;;5033078;28;20045;-73
2023/01/31 08:36:36;;;;;;;18.83;4.20;;;6.30;99.90;;;;;;5033048;28;20040;-72
2023/01/31 08:39:03;;;;;;;19.60;4.07;;;6.30;99.90;;;;;;5032575;28;20053;-72
2023/01/31 08:41:33;;;;;;;21.40;5.10;;;6.30;99.90;;;;;;5033157;28;20063;-73
2023/01/31 08:43:59;;;;;;;21.33;4.20;;;6.30;99.90;;;;;;5033167;28;20041;-74
2023/01/31 08:46:31;;;;;;;21.70;4.65;;;6.40;99.90;;;;;;5050169;28;20456;-73
2023/01/31 08:48:59;;;;;;;20.27;4.07;;;6.40;99.90;;;;;;5050746;28;20033;-73
2023/01/31 08:51:24;;;;;;;16.27;3.92;;;6.40;99.90;;;;;;5050971;28;20052;-73
2023/01/31 08:53:50;;;;;;;18.58;4.55;;;6.40;99.90;;;;;;5032166;28;20041;-73
2023/01/31 08:56:16;;;;;;;20.83;4.35;;;6.30;99.90;;;;;;5049601;28;20041;-73
2023/01/31 08:58:43;;;;;;;17.48;3.50;;;6.30;99.90;;;;;;5032605;28;20037;-72
2023/01/31 09:01:20;;;;;;;19.67;5.35;;;6.40;99.90;;;;;;5031873;28;20033;-73
2023/01/31 09:03:47;;;;;;;16.45;3.47;;;6.40;99.90;;;;;;5032865;28;20378;-73
2023/01/31 09:06:21;;;;;;;18.15;3.65;;;6.50;99.90;;;;;;5028360;28;20097;-73
2023/01/31 09:08:47;;;;;;;17.60;3.25;;;6.50;99.90;;;;;;5029032;28;20045;-73
2023/01/31 09:11:16;;;;;;;15.85;4.03;;;6.60;99.90;;;;;;5030441;28;20401;-73
2023/01/31 09:13:42;;;;;;;15.98;3.42;;;6.70;99.90;;;;;;5029393;28;20512;-73
2023/01/31 09:16:10;;;;;;;14.52;3.53;;;6.70;99.90;;;;;;5033431;28;20033;-73
2023/01/31 09:18:38;;;;;;;18.25;4.38;;;6.80;99.90;;;;;;5028962;28;20052;-72
2023/01/31 09:21:15;;;;;;;15.95;3.55;;;6.80;99.90;;;;;;5028280;28;20087;-73
2023/01/31 09:23:41;;;;;;;14.40;4.05;;;6.80;99.90;;;;;;5030158;28;20504;-72
2023/01/31 09:26:07;;;;;;;17.85;3.63;;;6.80;99.90;;;;;;5030004;28;20497;-72
2023/01/31 09:28:33;;;;;;;14.65;3.42;;;6.90;99.90;;;;;;5028364;28;20052;-71
2023/01/31 09:31:07;;;;;;;18.58;4.35;;;6.90;99.90;;;;;;5012270;28;20378;-73
2023/01/31 09:33:34;;;;;;;13.68;3.83;;;6.90;99.90;;;;;;5030368;28;20056;-73
2023/01/31 09:36:03;;;;;;;21.27;4.10;;;7.00;99.90;;;;;;5028319;28;20088;-73
2023/01/31 09:38:29;;;;;;;15.90;4.93;;;7.10;99.90;;;;;;5028814;28;20107;-72
2023/01/31 09:40:57;;;;;;;19.20;5.63;;;7.10;99.90;;;;;;5028105;28;20490;-72
2023/01/31 09:43:29;;;;;;;25.55;5.32;;;7.10;99.90;;;;;;5028795;28;20464;-73
2023/01/31 09:46:00;;;;;;;20.15;5.18;;;7.10;99.90;;;;;;5028746;28;20115;-72
2023/01/31 09:48:33;;;;;;;18.02;3.90;;;7.20;99.90;;;;;;5028150;28;20375;-72
2023/01/31 09:51:00;;;;;;;21.15;4.40;;;7.20;99.90;;;;;;5028303;28;20045;-72
2023/01/31 09:53:33;;;;;;;17.58;4.47;;;7.10;99.90;;;;;;5028211;28;20041;-73
2023/01/31 09:56:04;;;;;;;13.73;3.70;;;7.10;99.90;;;;;;5011279;28;20498;-72
2023/01/31 09:58:33;;;;;;;24.52;4.72;;;7.10;99.90;;;;;;5028619;28;20060;-73
2023/01/31 10:01:17;;;;;;;18.42;4.43;;;7.10;99.90;;;;;;5028465;28;20048;-72
2023/01/31 10:04:30;;;;;;;19.65;4.28;;;7.10;99.90;;;;;;5028920;28;20037;-73
2023/01/31 10:07:13;;;;;;;24.73;4.15;;;7.10;99.90;;;;;;5010017;28;20057;-72
2023/01/31 10:09:50;;;;;;;18.75;4.47;;;7.20;99.90;;;;;;5010137;28;20045;-73
2023/01/31 10:12:18;;;;;;;20.90;4.60;;;7.20;99.90;;;;;;5026867;28;20476;-73
2023/01/31 10:14:57;;;;;;;21.50;4.55;;;7.20;99.90;;;;;;5010376;28;20041;-73
2023/01/31 10:17:42;;;;;;;16.42;4.60;;;7.20;99.90;;;;;;5009931;28;20102;-73
2023/01/31 10:20:25;;;;;;;17.65;4.10;;;7.10;99.90;;;;;;5010148;28;20527;-72
2023/01/31 10:23:01;;;;;;;23.33;4.47;;;7.10;99.90;;;;;;4993065;28;20493;-73
2023/01/31 10:25:31;;;;;;;20.63;5.85;;;7.10;99.90;;;;;;5010516;28;20049;-72
2023/01/31 10:28:20;;;;;;;24.17;5.70;;;7.10;99.90;;;;;;5010554;28;20123;-72
2023/01/31 10:31:04;;;;;;;25.25;5.35;;;7.10;99.90;;;;;;5009718;28;20053;-73
2023/01/31 10:34:07;;;;;;;19.10;4.65;;;7.00;99.90;;;;;;5010121;28;20053;-72
2023/01/31 10:36:54;;;;;;;30.25;6.07;;;7.10;99.90;;;;;;4993182;28;20074;-72
2023/01/31 10:39:25;;;;;;;32.95;5.53;;;7.00;99.90;;;;;;5026670;28;20502;-72
2023/01/31 10:41:53;;;;;;;28.02;5.47;;;7.00;99.90;;;;;;5026592;28;20046;-72
2023/01/31 10:44:44;;;;;;;18.20;3.90;;;7.00;99.90;;;;;;5028652;28;20037;-72
2023/01/31 10:47:15;;;;;;;24.80;5.28;;;7.10;99.90;;;;;;5029054;28;20045;-72
2023/01/31 10:49:46;;;;;;;17.42;4.40;;;7.10;99.90;;;;;;5027564;28;20048;-71
2023/01/31 10:52:15;;;;;;;23.35;5.28;;;7.10;99.90;;;;;;5028566;28;20133;-72
2023/01/31 10:55:05;;;;;;;26.77;6.15;;;7.20;99.90;;;;;;5029152;28;20037;-72
2023/01/31 10:57:31;;;;;;;18.67;4.18;;;7.20;99.90;;;;;;5028961;28;20410;-72
2023/01/31 10:59:57;;;;;;;21.92;4.57;;;7.20;99.90;;;;;;5027062;28;20120;-73
2023/01/31 11:02:26;;;;;;;21.38;4.10;;;7.20;99.90;;;;;;5028899;28;20073;-72
2023/01/31 11:04:55;;;;;;;20.55;5.97;;;7.30;99.90;;;;;;5028399;28;20042;-73
2023/01/31 11:07:22;;;;;;;24.63;3.72;;;7.30;99.90;;;;;;5027437;28;20060;-73
2023/01/31 11:09:53;;;;;;;16.33;4.32;;;7.30;99.90;;;;;;5028844;28;20409;-72
2023/01/31 11:12:21;;;;;;;22.45;4.32;;;7.40;99.90;;;;;;5026959;28;20052;-73
2023/01/31 11:15:27;;;;;;;19.10;3.50;;;7.40;99.90;;;;;;5028860;28;20124;-72
2023/01/31 11:17:57;;;;;;;23.42;4.55;;;7.40;99.90;;;;;;5006761;28;20595;-72
2023/01/31 11:20:31;;;;;;;14.80;3.60;;;7.40;99.90;;;;;;4993389;28;20042;-73
2023/01/31 11:22:59;;;;;;;21.58;3.97;;;7.40;99.90;;;;;;4993812;28;20648;-70
2023/01/31 11:25:27;;;;;;;22.30;3.40;;;7.50;99.90;;;;;;4993812;28;20042;-71
2023/01/31 11:28:17;;;;;;;14.52;3.03;;;7.50;99.90;;;;;;4993203;28;20502;-71
2023/01/31 11:30:49;;;;;;;19.85;4.28;;;7.50;99.90;;;;;;5010234;28;20050;-70
2023/01/31 11:33:35;;;;;;;18.50;3.38;;;7.60;99.90;;;;;;5009270;28;20617;-73
2023/01/31 11:36:14;;;;;;;11.43;2.75;;;7.60;99.90;;;;;;4993831;28;20049;-73
2023/01/31 11:38:40;;;;;;;14.48;2.95;;;7.60;99.90;;;;;;4993692;28;20338;-71
2023/01/31 11:41:30;;;;;;;12.00;2.65;;;7.70;99.90;;;;;;5009398;28;20037;-71
2023/01/31 11:44:15;;;;;;;;;;;7.70;99.90;;;;;;5010445;28;20050;-72
2023/01/31 11:47:11;;;;;;;17.20;3.90;;;7.80;99.90;;;;;;5009894;28;19956;-71
2023/01/31 11:49:41;;;;;;;16.05;3.10;;;7.80;99.90;;;;;;5014418;28;20087;-73
2023/01/31 11:52:19;;;;;;;14.43;2.85;;;7.90;99.90;;;;;;5030800;28;20049;-71
2023/01/31 11:54:48;;;;;;;25.35;11.23;;;8.00;99.90;;;;;;5030037;28;20557;-70
2023/01/31 11:57:24;;;;;;;21.67;5.73;;;8.10;99.90;;;;;;5030611;28;20505;-71
2023/01/31 11:59:53;;;;;;;19.08;4.18;;;8.20;99.90;;;;;;5014095;28;20073;-70
2023/01/31 12:02:51;;;;;;;21.65;4.60;;;8.20;99.90;;;;;;5031119;28;20052;-70
2023/01/31 12:05:18;;;;;;;18.23;5.05;;;8.30;99.90;;;;;;5030654;28;20355;-70
2023/01/31 12:07:56;;;;;;;17.30;5.30;;;8.40;99.90;;;;;;5049493;28;20408;-70
2023/01/31 12:10:41;;;;;;;18.58;4.78;;;8.40;99.90;;;;;;5051561;28;20503;-70
2023/01/31 12:13:18;;;;;;;16.05;3.88;;;8.40;99.90;;;;;;5051612;28;20046;-70
2023/01/31 12:15:50;;;;;;;20.98;4.43;;;8.40;99.90;;;;;;5033252;28;20041;-70
2023/01/31 12:18:29;;;;;;;18.80;4.90;;;8.50;99.90;;;;;;5033643;28;20037;-69
2023/01/31 12:21:14;;;;;;;19.33;4.37;;;8.40;99.90;;;;;;5033429;28;20088;-70
2023/01/31 12:23:48;;;;;;;14.73;4.05;;;8.40;99.90;;;;;;5050648;28;20041;-70
2023/01/31 12:26:41;;;;;;;13.57;3.33;;;8.40;99.90;;;;;;5033690;28;20044;-70
2023/01/31 12:29:36;;;;;;;15.38;3.70;;;8.40;99.90;;;;;;5016090;28;20169;-70
2023/01/31 12:32:05;;;;;;;12.35;3.67;;;8.40;99.90;;;;;;5051332;28;20106;-70
2023/01/31 12:34:43;;;;;;;17.45;3.97;;;8.40;99.90;;;;;;5033039;28;20072;-70
2023/01/31 12:37:19;;;;;;;18.60;4.15;;;8.40;99.90;;;;;;5050577;28;20044;-70
2023/01/31 12:39:56;;;;;;;13.32;3.25;;;8.40;99.90;;;;;;5033153;28;20098;-71
2023/01/31 12:42:28;;;;;;;16.75;3.97;;;8.40;99.90;;;;;;5033233;28;20440;-70
2023/01/31 12:45:27;;;;;;;19.33;5.50;;;8.60;99.90;;;;;;5016134;28;20045;-71
2023/01/31 12:48:12;;;;;;;15.05;3.95;;;8.90;99.90;;;;;;5050754;28;20550;-70
2023/01/31 12:50:56;;;;;;;13.13;3.67;;;9.10;99.90;;;;;;5030204;28;20087;-70
2023/01/31 12:53:37;;;;;;;12.23;3.28;;;9.30;99.90;;;;;;5032550;28;20531;-70
2023/01/31 12:56:23;;;;;;;13.77;3.25;;;9.40;99.90;;;;;;5019911;28;20067;-70
2023/01/31 12:58:49;;;;;;;13.73;2.75;;;9.60;99.90;;;;;;5031893;28;20504;-70
2023/01/31 13:01:23;;;;;;;13.27;3.00;;;9.70;99.90;;;;;;5032823;28;20037;-69
2023/01/31 13:04:10;;;;;;;13.65;3.45;;;9.80;99.90;;;;;;5032563;28;20515;-70
2023/01/31 13:06:40;;;;;;;13.90;2.88;;;9.80;99.90;;;;;;5032233;28;20053;-70
2023/01/31 13:09:09;;;;;;;;;;;9.80;99.90;;;;;;5032690;28;20456;-70
2023/01/31 13:11:55;;;;;;;12.32;4.10;;;9.80;99.90;;;;;;5032120;28;19924;-70
2023/01/31 13:14:25;;;;;;;15.60;3.00;;;9.70;99.90;;;;;;5050306;28;20060;-70
2023/01/31 13:16:57;;;;;;;10.20;4.40;;;9.40;99.90;;;;;;5050208;28;20069;-70
2023/01/31 13:19:39;;;;;;;13.63;4.57;;;9.30;99.90;;;;;;5032074;28;20040;-70